Time;durP1;ratioP1;P1;durP2;ratioP2;P2;SDS_P1;SDS_P2;PMS_P1;PMS_P2;Temp;Humidity;BMP_temperature;BMP_pressure;BME280_temperature;BME280_humidity;BME280_pressure;Samples;Min_cycle;Max_cycle;Signal;HPM_P1;HPM_P2
2024/01/01 00:00:45;;;;;;;112.40;57.30;;;6.80;99.90;;;;;;4209135;28;20956;-77
2024/01/01 00:02:46;;;;;;;80.90;41.67;;;6.70;99.90;;;;;;4211312;28;20231;-77
2024/01/01 00:04:48;;;;;;;60.47;29.57;;;6.70;99.90;;;;;;4211599;28;20626;-77
2024/01/01 00:06:50;;;;;;;64.53;27.13;;;6.70;99.90;;;;;;4209774;28;20213;-77
2024/01/01 00:08:54;;;;;;;52.27;24.30;;;6.70;99.90;;;;;;4213134;28;20283;-77
2024/01/01 00:10:56;;;;;;;54.70;24.30;;;6.70;99.90;;;;;;4209600;28;20209;-77
2024/01/01 00:12:59;;;;;;;45.37;20.20;;;6.70;99.90;;;;;;4212004;28;20282;-77
2024/01/01 00:15:01;;;;;;;39.20;19.73;;;6.70;99.90;;;;;;4209200;28;20221;-77
2024/01/01 00:17:04;;;;;;;33.50;17.20;;;6.60;99.90;;;;;;4210542;28;21957;-77
2024/01/01 00:19:05;;;;;;;39.10;18.43;;;6.60;99.90;;;;;;4214836;28;20258;-77
2024/01/01 00:21:07;;;;;;;37.23;16.93;;;6.60;99.90;;;;;;4211311;28;20266;-77
2024/01/01 00:23:09;;;;;;;35.70;16.53;;;6.70;99.90;;;;;;4211121;28;20264;-77
2024/01/01 00:25:11;;;;;;;35.97;16.23;;;6.70;99.90;;;;;;4212013;28;20216;-77
2024/01/01 00:27:13;;;;;;;36.00;15.17;;;6.60;99.90;;;;;;4215721;28;20265;-77
2024/01/01 00:29:16;;;;;;;31.33;13.00;;;6.70;99.90;;;;;;4213814;28;20270;-77
2024/01/01 00:31:18;;;;;;;28.10;12.00;;;6.70;99.90;;;;;;4209568;28;20213;-77
2024/01/01 00:33:20;;;;;;;29.33;13.70;;;6.70;99.90;;;;;;4215226;28;20217;-77
2024/01/01 00:35:22;;;;;;;29.03;11.93;;;6.70;99.90;;;;;;4207374;28;20220;-77
2024/01/01 00:37:24;;;;;;;28.83;12.50;;;6.70;99.90;;;;;;4211279;28;20209;-77
2024/01/01 00:39:26;;;;;;;23.23;11.33;;;6.70;99.90;;;;;;4216807;28;20209;-77
2024/01/01 00:41:31;;;;;;;27.20;11.10;;;6.70;99.90;;;;;;4211547;28;20206;-77
2024/01/01 00:43:34;;;;;;;21.80;9.90;;;6.70;99.90;;;;;;4202444;28;20271;-77
2024/01/01 00:45:38;;;;;;;23.20;9.70;;;6.70;99.90;;;;;;4200695;28;20244;-77
2024/01/01 00:47:40;;;;;;;16.43;8.30;;;6.70;99.90;;;;;;4205100;28;20209;-77
2024/01/01 00:49:42;;;;;;;22.33;8.37;;;6.70;99.90;;;;;;4212057;28;20258;-77
2024/01/01 00:51:43;;;;;;;16.10;7.33;;;6.70;99.90;;;;;;4212227;28;20254;-77
2024/01/01 00:53:45;;;;;;;14.73;7.03;;;6.60;99.90;;;;;;4218419;28;20247;-77
2024/01/01 00:55:46;;;;;;;14.90;7.20;;;6.60;99.90;;;;;;4218563;28;20273;-77
2024/01/01 00:57:48;;;;;;;15.77;7.13;;;6.60;99.90;;;;;;4220126;28;20284;-77
2024/01/01 00:59:50;;;;;;;19.50;7.60;;;6.60;99.90;;;;;;4214593;28;20250;-77
2024/01/01 01:01:53;;;;;;;14.20;7.23;;;6.60;99.90;;;;;;4200360;28;20217;-77
2024/01/01 01:03:56;;;;;;;16.87;7.50;;;6.60;99.90;;;;;;4217298;28;20230;-76
2024/01/01 01:05:58;;;;;;;19.90;6.97;;;6.50;99.90;;;;;;4219580;28;20201;-76
2024/01/01 01:08:00;;;;;;;16.63;6.30;;;6.60;99.90;;;;;;4221859;28;20258;-77
2024/01/01 01:10:04;;;;;;;16.13;7.83;;;6.60;99.90;;;;;;4219375;28;20211;-76
2024/01/01 01:12:06;;;;;;;12.13;6.37;;;6.50;99.90;;;;;;4216775;28;20200;-76
2024/01/01 01:14:09;;;;;;;17.23;8.13;;;6.50;99.90;;;;;;4217359;28;20715;-76
2024/01/01 01:16:11;;;;;;;14.57;6.83;;;6.50;99.90;;;;;;4214752;28;20512;-77
2024/01/01 01:18:14;;;;;;;15.63;7.83;;;6.50;99.90;;;;;;4214827;28;20204;-77
2024/01/01 01:20:16;;;;;;;18.67;8.07;;;6.40;99.90;;;;;;4215963;28;20205;-76
2024/01/01 01:22:18;;;;;;;20.13;8.80;;;6.40;99.90;;;;;;4215093;28;20241;-76
2024/01/01 01:24:20;;;;;;;18.80;9.30;;;7.00;99.90;;;;;;4218636;28;20226;-76
2024/01/01 01:26:22;;;;;;;22.53;9.90;;;6.50;99.90;;;;;;4214194;28;20205;-77
2024/01/01 01:28:25;;;;;;;20.97;9.67;;;6.50;99.90;;;;;;4215800;28;20209;-76
2024/01/01 01:30:27;;;;;;;22.87;10.30;;;6.50;99.90;;;;;;4217312;28;20311;-76
2024/01/01 01:32:29;;;;;;;20.33;10.07;;;6.50;99.90;;;;;;4215469;28;20465;-77
2024/01/01 01:34:32;;;;;;;19.90;10.17;;;6.50;99.90;;;;;;4219343;28;20242;-78
2024/01/01 01:36:34;;;;;;;23.93;10.87;;;6.50;99.90;;;;;;4221230;28;20205;-77
2024/01/01 01:38:37;;;;;;;26.57;10.70;;;6.50;99.90;;;;;;4219681;28;20224;-77
2024/01/01 01:40:39;;;;;;;27.87;11.93;;;6.50;99.90;;;;;;4219396;28;20220;-77
2024/01/01 01:42:46;;;;;;;23.93;11.67;;;6.50;99.90;;;;;;4218146;28;20254;-77
2024/01/01 01:44:48;;;;;;;27.83;11.40;;;6.40;99.90;;;;;;4219984;28;20189;-78
2024/01/01 01:46:50;;;;;;;26.70;11.90;;;6.40;99.90;;;;;;4218558;28;20215;-77
2024/01/01 01:48:52;;;;;;;23.90;11.03;;;6.40;99.90;;;;;;4215990;28;20204;-77
2024/01/01 01:50:56;;;;;;;21.57;10.00;;;6.40;99.90;;;;;;4217121;28;20214;-77
2024/01/01 01:52:58;;;;;;;19.93;10.00;;;6.40;99.90;;;;;;4220102;28;20224;-77
2024/01/01 01:55:00;;;;;;;21.67;10.17;;;6.40;99.90;;;;;;4218316;28;20870;-77
2024/01/01 01:57:02;;;;;;;22.73;9.93;;;6.40;99.90;;;;;;4221208;28;20209;-77
2024/01/01 01:59:04;;;;;;;21.40;9.67;;;6.40;99.90;;;;;;4219509;28;20214;-77
2024/01/01 02:01:06;;;;;;;20.53;8.90;;;6.40;99.90;;;;;;4220167;28;20394;-77
2024/01/01 02:03:08;;;;;;;19.80;8.73;;;6.40;99.90;;;;;;4218986;28;20217;-77
2024/01/01 02:05:09;;;;;;;20.00;8.90;;;6.40;99.90;;;;;;4219988;28;20204;-77
2024/01/01 02:07:15;;;;;;;23.00;8.50;;;6.40;99.90;;;;;;4215466;28;20466;-77
2024/01/01 02:09:17;;;;;;;23.87;8.30;;;6.40;99.90;;;;;;4218095;28;20751;-77
2024/01/01 02:11:19;;;;;;;19.43;8.00;;;6.50;99.90;;;;;;4218305;28;20206;-77
2024/01/01 02:13:23;;;;;;;17.03;7.87;;;6.50;99.90;;;;;;4215953;28;20222;-77
2024/01/01 02:15:25;;;;;;;18.70;8.10;;;6.50;99.90;;;;;;4215675;28;21567;-77
2024/01/01 02:17:27;;;;;;;13.50;7.20;;;6.60;99.90;;;;;;4217295;28;20208;-78
2024/01/01 02:19:30;;;;;;;16.27;7.60;;;6.50;99.90;;;;;;4215420;28;20214;-78
2024/01/01 02:21:31;;;;;;;18.93;7.40;;;6.50;99.90;;;;;;4214440;28;20205;-78
2024/01/01 02:23:35;;;;;;;16.13;6.63;;;6.50;99.90;;;;;;4207858;28;20245;-78
2024/01/01 02:25:37;;;;;;;13.83;6.03;;;6.50;99.90;;;;;;4214096;28;20250;-77
2024/01/01 02:27:39;;;;;;;16.73;6.87;;;6.50;99.90;;;;;;4213868;28;20255;-77
2024/01/01 02:29:41;;;;;;;14.80;6.20;;;6.50;99.90;;;;;;4213267;28;20270;-78
2024/01/01 02:31:43;;;;;;;9.73;5.40;;;6.50;99.90;;;;;;4212973;28;20258;-79
2024/01/01 02:33:45;;;;;;;13.37;5.43;;;6.60;99.90;;;;;;4211723;28;20705;-79
2024/01/01 02:35:47;;;;;;;11.03;5.60;;;6.60;99.90;;;;;;4214121;28;20221;-78
2024/01/01 02:37:49;;;;;;;14.87;5.20;;;6.60;99.90;;;;;;4215190;28;20667;-78
2024/01/01 02:39:53;;;;;;;12.30;4.83;;;6.60;99.90;;;;;;4211926;28;20274;-77
2024/01/01 02:41:54;;;;;;;14.27;4.10;;;6.60;99.90;;;;;;4209761;28;20266;-77
2024/01/01 02:43:55;;;;;;;11.07;4.77;;;6.60;99.90;;;;;;4208836;28;20226;-77
2024/01/01 02:45:57;;;;;;;9.23;4.37;;;6.60;99.90;;;;;;4208630;28;20243;-76
2024/01/01 02:47:59;;;;;;;11.00;4.83;;;6.60;99.90;;;;;;4211047;28;20266;-76
2024/01/01 02:50:01;;;;;;;15.43;4.93;;;6.60;99.90;;;;;;4212246;28;20212;-76
2024/01/01 02:52:03;;;;;;;11.10;4.20;;;6.60;99.90;;;;;;4213015;28;20206;-77
2024/01/01 02:54:05;;;;;;;9.40;4.50;;;6.60;99.90;;;;;;4210234;28;20826;-76
2024/01/01 02:56:16;;;;;;;7.87;3.83;;;6.60;99.90;;;;;;4214524;28;20224;-76
2024/01/01 02:58:18;;;;;;;7.43;3.80;;;6.60;99.90;;;;;;4213289;28;20205;-76
2024/01/01 03:00:20;;;;;;;13.50;4.20;;;6.60;99.90;;;;;;4210816;28;20194;-76
2024/01/01 03:02:22;;;;;;;8.50;4.30;;;6.60;99.90;;;;;;4210555;28;20621;-76
2024/01/01 03:04:24;;;;;;;12.37;4.40;;;6.60;99.90;;;;;;4211414;28;20218;-76
2024/01/01 03:06:29;;;;;;;9.47;4.20;;;6.60;99.90;;;;;;4211277;28;20250;-76
2024/01/01 03:08:31;;;;;;;10.17;4.33;;;6.50;99.90;;;;;;4212131;28;20208;-76
2024/01/01 03:10:33;;;;;;;8.97;4.03;;;6.50;99.90;;;;;;4210836;28;20661;-76
2024/01/01 03:12:36;;;;;;;9.00;3.63;;;6.50;99.90;;;;;;4212379;28;20555;-76
2024/01/01 03:14:39;;;;;;;10.43;3.77;;;6.50;99.90;;;;;;4212429;28;20262;-76
2024/01/01 03:16:42;;;;;;;6.23;3.23;;;6.50;99.90;;;;;;4209267;28;20644;-77
2024/01/01 03:18:44;;;;;;;9.50;3.60;;;6.50;99.90;;;;;;4211031;28;20197;-76
2024/01/01 03:20:48;;;;;;;7.83;3.67;;;6.40;99.90;;;;;;4210934;28;20876;-77
2024/01/01 03:22:50;;;;;;;7.10;3.33;;;6.40;99.90;;;;;;4210840;28;20781;-77
2024/01/01 03:24:52;;;;;;;6.77;3.20;;;6.40;99.90;;;;;;4213064;28;20205;-77
2024/01/01 03:26:54;;;;;;;10.43;3.60;;;6.40;99.90;;;;;;4214632;28;20459;-77
2024/01/01 03:28:57;;;;;;;8.97;3.10;;;6.40;99.90;;;;;;4216020;28;20258;-75
2024/01/01 03:31:00;;;;;;;5.83;2.90;;;6.40;99.90;;;;;;4210333;28;20284;-76
2024/01/01 03:33:02;;;;;;;6.73;3.10;;;6.40;99.90;;;;;;4213056;28;20245;-77
2024/01/01 03:35:05;;;;;;;7.47;2.97;;;6.40;99.90;;;;;;4208706;28;20748;-76
2024/01/01 03:37:07;;;;;;;5.70;2.50;;;6.40;99.90;;;;;;4214692;28;20235;-75
2024/01/01 03:39:09;;;;;;;8.30;3.50;;;6.40;99.90;;;;;;4212303;28;20209;-77
2024/01/01 03:41:11;;;;;;;8.53;2.93;;;6.40;99.90;;;;;;4212395;28;20264;-77
2024/01/01 03:43:16;;;;;;;9.57;3.27;;;6.40;99.90;;;;;;4212621;28;20233;-77
2024/01/01 03:45:19;;;;;;;7.57;2.90;;;6.40;99.90;;;;;;4209603;28;20205;-77
2024/01/01 03:47:21;;;;;;;8.23;2.53;;;6.30;99.90;;;;;;4221003;28;20205;-77
2024/01/01 03:49:23;;;;;;;6.93;2.83;;;6.30;99.90;;;;;;4213547;28;20439;-77
2024/01/01 03:51:25;;;;;;;6.17;2.90;;;6.40;99.90;;;;;;4207403;28;20708;-77
2024/01/01 03:53:27;;;;;;;6.37;2.90;;;6.40;99.90;;;;;;4211072;28;20637;-77
2024/01/01 03:55:29;;;;;;;7.40;3.20;;;6.40;99.90;;;;;;4215802;28;20223;-77
2024/01/01 03:57:32;;;;;;;7.63;2.97;;;6.40;99.90;;;;;;4211568;28;20848;-78
2024/01/01 03:59:33;;;;;;;8.83;3.07;;;6.40;99.90;;;;;;4209763;28;20214;-77
2024/01/01 04:01:37;;;;;;;6.53;3.10;;;6.40;99.90;;;;;;4210609;28;20568;-77
2024/01/01 04:03:39;;;;;;;7.13;2.70;;;6.40;99.90;;;;;;4211677;28;20233;-77
2024/01/01 04:05:40;;;;;;;7.37;3.00;;;6.30;99.90;;;;;;4210248;28;20193;-76
2024/01/01 04:07:43;;;;;;;10.13;3.47;;;6.40;99.90;;;;;;4210030;28;20652;-77
2024/01/01 04:09:47;;;;;;;10.10;3.43;;;6.30;99.90;;;;;;4210090;28;20197;-77
2024/01/01 04:11:48;;;;;;;11.93;3.60;;;6.30;99.90;;;;;;4211141;28;20575;-77
2024/01/01 04:13:49;;;;;;;8.67;2.90;;;6.30;99.90;;;;;;4210838;28;20217;-77
2024/01/01 04:15:52;;;;;;;8.97;3.50;;;6.30;99.90;;;;;;4213131;28;20273;-77
2024/01/01 04:17:54;;;;;;;7.43;2.80;;;6.20;99.90;;;;;;4215443;28;20205;-77
2024/01/01 04:19:56;;;;;;;9.47;3.30;;;6.30;99.90;;;;;;4214214;28;20208;-77
2024/01/01 04:21:58;;;;;;;8.83;3.27;;;6.20;99.90;;;;;;4207558;28;20444;-76
2024/01/01 04:24:00;;;;;;;12.40;3.60;;;6.20;99.90;;;;;;4213061;28;20294;-76
2024/01/01 04:26:02;;;;;;;11.63;3.80;;;6.20;99.90;;;;;;4214512;28;21137;-77
2024/01/01 04:28:04;;;;;;;9.33;3.47;;;6.10;99.90;;;;;;4213314;28;20212;-77
2024/01/01 04:30:07;;;;;;;6.20;3.30;;;6.10;99.90;;;;;;4211687;28;20205;-76
2024/01/01 04:32:09;;;;;;;9.00;3.87;;;6.10;99.90;;;;;;4211025;28;20254;-76
2024/01/01 04:34:11;;;;;;;7.70;3.47;;;6.10;99.90;;;;;;4208635;28;20232;-77
2024/01/01 04:36:13;;;;;;;7.43;3.50;;;6.10;99.90;;;;;;4211890;28;20224;-77
2024/01/01 04:38:15;;;;;;;9.97;4.33;;;6.10;99.90;;;;;;4214567;28;20201;-77
2024/01/01 04:40:19;;;;;;;8.83;4.23;;;6.10;99.90;;;;;;4217641;28;20438;-76
2024/01/01 04:42:20;;;;;;;10.47;4.13;;;6.10;99.90;;;;;;4211744;28;20439;-76
2024/01/01 04:44:22;;;;;;;6.30;3.50;;;6.10;99.90;;;;;;4210861;28;20347;-76
2024/01/01 04:46:24;;;;;;;11.40;3.90;;;6.10;99.90;;;;;;4209541;28;20197;-76
2024/01/01 04:48:26;;;;;;;10.70;4.50;;;6.10;99.90;;;;;;4210342;28;20209;-76
2024/01/01 04:50:29;;;;;;;9.53;4.03;;;6.10;99.90;;;;;;4192521;28;20756;-77
2024/01/01 04:52:31;;;;;;;10.73;3.77;;;6.10;99.90;;;;;;4212407;28;20204;-76
2024/01/01 04:54:33;;;;;;;8.93;3.80;;;6.10;99.90;;;;;;4211351;28;21240;-76
2024/01/01 04:56:34;;;;;;;9.60;3.67;;;6.10;99.90;;;;;;4212042;28;20213;-76
2024/01/01 04:58:36;;;;;;;11.07;4.23;;;6.10;99.90;;;;;;4210295;28;20484;-76
2024/01/01 05:00:38;;;;;;;8.67;3.30;;;6.10;99.90;;;;;;4194273;28;20247;-76
2024/01/01 05:02:40;;;;;;;11.80;3.27;;;6.10;99.90;;;;;;4210087;28;20193;-76
2024/01/01 05:04:42;;;;;;;13.63;4.00;;;6.10;99.90;;;;;;4212602;28;20448;-76
2024/01/01 05:06:45;;;;;;;10.83;4.07;;;6.10;99.90;;;;;;4210521;28;20497;-76
2024/01/01 05:08:48;;;;;;;7.97;2.63;;;6.00;99.90;;;;;;4210301;28;20616;-75
2024/01/01 05:10:50;;;;;;;8.63;3.20;;;6.00;99.90;;;;;;4211589;28;20266;-76
2024/01/01 05:12:52;;;;;;;11.23;3.70;;;6.00;99.90;;;;;;4211772;28;20213;-76
2024/01/01 05:14:53;;;;;;;9.67;3.17;;;6.00;99.90;;;;;;4215653;28;20204;-76
2024/01/01 05:16:55;;;;;;;8.87;3.30;;;6.00;99.90;;;;;;4213611;28;20475;-76
2024/01/01 05:18:56;;;;;;;8.03;3.00;;;6.00;99.90;;;;;;4212565;28;20455;-76
2024/01/01 05:20:58;;;;;;;8.27;3.30;;;6.00;99.90;;;;;;4213190;28;20201;-76
2024/01/01 05:23:02;;;;;;;5.73;2.90;;;6.00;99.90;;;;;;4211514;28;20610;-76
2024/01/01 05:25:05;;;;;;;7.33;3.60;;;6.00;99.90;;;;;;4216640;28;20442;-75
2024/01/01 05:27:09;;;;;;;6.17;2.90;;;6.00;99.90;;;;;;4211019;28;20450;-75
2024/01/01 05:29:10;;;;;;;7.70;3.40;;;6.10;99.90;;;;;;4210250;28;20300;-75
2024/01/01 05:31:17;;;;;;;6.17;2.70;;;6.00;99.90;;;;;;4209749;28;20240;-76
2024/01/01 05:33:19;;;;;;;9.20;3.30;;;6.00;99.90;;;;;;4209616;28;20475;-76
2024/01/01 05:35:22;;;;;;;8.30;3.23;;;6.00;99.90;;;;;;4206741;28;20482;-76
2024/01/01 05:37:24;;;;;;;8.90;3.30;;;6.00;99.90;;;;;;4214515;28;20296;-76
2024/01/01 05:39:27;;;;;;;10.37;3.40;;;6.00;99.90;;;;;;4212211;28;20680;-76
2024/01/01 05:41:29;;;;;;;7.47;2.73;;;6.00;99.90;;;;;;4212512;28;20439;-76
2024/01/01 05:43:33;;;;;;;7.80;3.33;;;6.00;99.90;;;;;;4214624;28;20263;-76
2024/01/01 05:45:35;;;;;;;6.53;3.20;;;5.90;99.90;;;;;;4213920;28;20305;-76
2024/01/01 05:47:37;;;;;;;8.00;3.37;;;5.90;99.90;;;;;;4215999;28;20585;-76
2024/01/01 05:49:39;;;;;;;9.00;3.23;;;5.90;99.90;;;;;;4216280;28;20496;-76
2024/01/01 05:51:41;;;;;;;7.73;3.10;;;5.90;99.90;;;;;;4211965;28;20201;-76
2024/01/01 05:53:43;;;;;;;8.90;3.60;;;5.90;99.90;;;;;;4212952;28;20228;-76
2024/01/01 05:55:46;;;;;;;6.60;3.20;;;5.90;99.90;;;;;;4212726;28;20208;-76
2024/01/01 05:57:48;;;;;;;9.27;2.97;;;5.90;99.90;;;;;;4214085;28;20447;-77
2024/01/01 05:59:50;;;;;;;6.53;2.80;;;5.80;99.90;;;;;;4213478;28;20443;-77
2024/01/01 06:01:52;;;;;;;9.07;3.50;;;5.80;99.90;;;;;;4215583;28;20958;-77
2024/01/01 06:03:53;;;;;;;7.40;3.43;;;5.80;99.90;;;;;;4212972;28;20524;-76
2024/01/01 06:05:55;;;;;;;8.30;2.93;;;5.80;99.90;;;;;;4212363;28;20258;-77
2024/01/01 06:07:56;;;;;;;10.17;3.60;;;5.80;99.90;;;;;;4213765;28;20209;-77
2024/01/01 06:09:59;;;;;;;7.37;3.20;;;5.80;99.90;;;;;;4212983;28;20454;-76
2024/01/01 06:12:02;;;;;;;12.60;4.37;;;5.80;99.90;;;;;;4215194;28;21870;-76
2024/01/01 06:14:04;;;;;;;8.37;3.77;;;5.80;99.90;;;;;;4212948;28;20466;-76
2024/01/01 06:16:07;;;;;;;9.07;3.57;;;5.80;99.90;;;;;;4213588;28;20837;-77
2024/01/01 06:18:11;;;;;;;9.57;3.80;;;5.80;99.90;;;;;;4210726;28;20440;-77
2024/01/01 06:20:13;;;;;;;7.73;3.30;;;5.80;99.90;;;;;;4217462;28;20671;-77
2024/01/01 06:22:15;;;;;;;8.97;4.10;;;5.80;99.90;;;;;;4211666;28;20543;-77
2024/01/01 06:24:16;;;;;;;11.90;4.07;;;5.80;99.90;;;;;;4213556;28;20459;-77
2024/01/01 06:26:18;;;;;;;9.83;3.63;;;5.80;99.90;;;;;;4217367;28;20496;-77
2024/01/01 06:28:21;;;;;;;6.20;3.20;;;5.80;99.90;;;;;;4216727;28;20209;-77
2024/01/01 06:30:23;;;;;;;9.47;4.30;;;5.80;99.90;;;;;;4211470;28;20856;-77
2024/01/01 06:32:25;;;;;;;8.57;3.67;;;5.80;99.90;;;;;;4210933;28;20213;-77
2024/01/01 06:34:27;;;;;;;8.40;3.43;;;5.80;99.90;;;;;;4214909;28;20478;-76
2024/01/01 06:36:29;;;;;;;9.17;3.40;;;5.70;99.90;;;;;;4215828;28;20481;-74
2024/01/01 06:38:31;;;;;;;8.77;3.37;;;5.70;99.90;;;;;;4212207;28;20480;-74
2024/01/01 06:40:33;;;;;;;10.13;3.93;;;5.70;99.90;;;;;;4212608;28;20447;-75
2024/01/01 06:42:35;;;;;;;6.80;3.53;;;5.80;99.90;;;;;;4212607;28;20439;-74
2024/01/01 06:44:38;;;;;;;7.73;3.20;;;5.70;99.90;;;;;;4212820;28;20929;-74
2024/01/01 06:46:40;;;;;;;8.10;3.50;;;5.80;99.90;;;;;;4212350;28;20443;-75
2024/01/01 06:48:42;;;;;;;10.60;4.00;;;5.80;99.90;;;;;;4211594;28;20466;-75
2024/01/01 06:50:47;;;;;;;9.80;3.73;;;5.70;99.90;;;;;;4211087;28;20444;-73
2024/01/01 06:52:49;;;;;;;8.83;3.50;;;5.70;99.90;;;;;;4213173;28;20469;-74
2024/01/01 06:54:50;;;;;;;8.77;3.37;;;5.80;99.90;;;;;;4211942;28;20511;-75
2024/01/01 06:56:52;;;;;;;11.20;3.07;;;5.80;99.90;;;;;;4211089;28;20487;-75
2024/01/01 06:58:54;;;;;;;8.30;3.80;;;5.70;99.90;;;;;;4212392;28;20508;-74
2024/01/01 07:00:58;;;;;;;8.93;3.60;;;5.70;99.90;;;;;;4211608;28;20451;-74
2024/01/01 07:03:00;;;;;;;9.03;3.07;;;5.70;99.90;;;;;;4215043;28;20473;-77
2024/01/01 07:05:02;;;;;;;9.63;3.70;;;5.70;99.90;;;;;;4212388;28;20205;-77
2024/01/01 07:07:04;;;;;;;9.03;3.70;;;5.70;99.90;;;;;;4211381;28;20482;-77
2024/01/01 07:09:08;;;;;;;8.90;3.80;;;5.70;99.90;;;;;;4212576;28;20457;-76
2024/01/01 07:11:10;;;;;;;7.77;3.20;;;5.70;99.90;;;;;;4213479;28;20434;-76
2024/01/01 07:13:11;;;;;;;11.40;4.10;;;5.70;99.90;;;;;;4215121;28;20465;-76
2024/01/01 07:15:13;;;;;;;11.67;3.73;;;5.70;99.90;;;;;;4210831;28;20458;-75
2024/01/01 07:17:18;;;;;;;8.40;3.07;;;5.70;99.90;;;;;;4209077;28;20487;-76
2024/01/01 07:19:20;;;;;;;9.43;3.70;;;5.60;99.90;;;;;;4211907;28;20439;-76
2024/01/01 07:21:22;;;;;;;7.73;3.47;;;5.70;99.90;;;;;;4212852;28;20450;-76
2024/01/01 07:23:24;;;;;;;6.83;3.43;;;5.60;99.90;;;;;;4213103;28;21198;-76
2024/01/01 07:25:24;;;;;;;7.27;3.40;;;5.60;99.90;;;;;;4194525;28;20444;-76
2024/01/01 07:27:26;;;;;;;9.23;3.97;;;5.70;99.90;;;;;;4211324;28;21023;-76
2024/01/01 07:29:30;;;;;;;8.57;3.87;;;5.60;99.90;;;;;;4213307;28;20289;-77
2024/01/01 07:31:32;;;;;;;7.33;3.57;;;5.60;99.90;;;;;;4212649;28;21211;-77
2024/01/01 07:33:35;;;;;;;8.23;3.47;;;5.60;99.90;;;;;;4214603;28;20470;-76
2024/01/01 07:35:37;;;;;;;7.73;3.53;;;5.60;99.90;;;;;;4208784;28;20474;-76
2024/01/01 07:37:39;;;;;;;8.73;4.10;;;5.60;99.90;;;;;;4211423;28;20907;-76
2024/01/01 07:39:42;;;;;;;6.90;3.30;;;5.60;99.90;;;;;;4214028;28;20473;-76
2024/01/01 07:41:44;;;;;;;13.33;3.57;;;5.60;99.90;;;;;;4211533;28;20496;-76
2024/01/01 07:43:45;;;;;;;8.67;3.70;;;5.60;99.90;;;;;;4211722;28;20478;-80
2024/01/01 07:45:46;;;;;;;6.57;3.00;;;5.60;99.90;;;;;;4211669;28;20447;-76
2024/01/01 07:47:48;;;;;;;9.07;3.73;;;5.60;99.90;;;;;;4212278;28;20955;-77
2024/01/01 07:49:51;;;;;;;8.27;3.57;;;5.60;99.90;;;;;;4211838;28;20208;-76
2024/01/01 07:51:53;;;;;;;10.20;3.20;;;5.60;99.90;;;;;;4215140;28;20453;-76
2024/01/01 07:53:54;;;;;;;7.47;3.60;;;5.60;99.90;;;;;;4210016;28;20483;-76
2024/01/01 07:55:56;;;;;;;7.73;3.57;;;5.60;99.90;;;;;;4213096;28;20461;-76
2024/01/01 07:57:58;;;;;;;9.60;3.70;;;5.60;99.90;;;;;;4212829;28;20479;-76
2024/01/01 07:59:59;;;;;;;11.37;3.83;;;5.60;99.90;;;;;;4211518;28;20521;-77
2024/01/01 08:02:01;;;;;;;10.43;3.87;;;5.70;99.90;;;;;;4211859;28;20454;-76
2024/01/01 08:04:04;;;;;;;10.13;3.90;;;5.70;99.90;;;;;;4212178;28;20857;-76
2024/01/01 08:06:07;;;;;;;9.93;3.70;;;5.60;99.90;;;;;;4210016;28;21010;-76
2024/01/01 08:08:09;;;;;;;10.00;3.87;;;5.70;99.90;;;;;;4210453;28;20205;-77
2024/01/01 08:10:11;;;;;;;12.07;4.07;;;5.80;99.90;;;;;;4214033;28;20450;-77
2024/01/01 08:12:13;;;;;;;7.93;3.67;;;5.90;99.90;;;;;;4212209;28;20197;-76
2024/01/01 08:14:15;;;;;;;11.07;4.13;;;5.80;99.90;;;;;;4216497;28;20224;-76
2024/01/01 08:16:19;;;;;;;9.97;4.07;;;5.90;99.90;;;;;;4211054;28;20209;-76
2024/01/01 08:18:21;;;;;;;9.73;4.00;;;5.90;99.90;;;;;;4211470;28;20221;-76
2024/01/01 08:20:22;;;;;;;9.87;4.43;;;5.90;99.90;;;;;;4211619;28;20568;-77
2024/01/01 08:22:26;;;;;;;8.73;3.80;;;5.90;99.90;;;;;;4209646;28;20225;-76
2024/01/01 08:24:28;;;;;;;9.00;3.60;;;5.90;99.90;;;;;;4212916;28;20233;-76
2024/01/01 08:26:30;;;;;;;13.70;4.20;;;5.90;99.90;;;;;;4195995;28;20693;-76
2024/01/01 08:28:32;;;;;;;11.67;3.53;;;6.00;99.90;;;;;;4211504;28;20495;-75
2024/01/01 08:30:34;;;;;;;7.93;3.70;;;6.00;99.90;;;;;;4210800;28;20197;-75
2024/01/01 08:32:36;;;;;;;11.93;3.73;;;6.00;99.90;;;;;;4210786;28;20343;-75
2024/01/01 08:34:38;;;;;;;9.20;3.97;;;6.10;99.90;;;;;;4210006;28;20565;-75
2024/01/01 08:36:40;;;;;;;9.67;3.77;;;6.10;99.90;;;;;;4209747;28;20768;-75
2024/01/01 08:38:43;;;;;;;10.80;3.70;;;6.20;99.90;;;;;;4211038;28;20213;-76
2024/01/01 08:40:44;;;;;;;8.17;3.43;;;6.20;99.90;;;;;;4210183;28;20197;-76
2024/01/01 08:42:47;;;;;;;7.47;3.33;;;6.20;99.90;;;;;;4211491;28;20262;-76
2024/01/01 08:44:49;;;;;;;11.40;3.50;;;6.20;99.90;;;;;;4212732;28;20205;-75
2024/01/01 08:46:51;;;;;;;7.87;3.23;;;6.30;99.90;;;;;;4209313;28;20812;-76
2024/01/01 08:48:53;;;;;;;7.63;3.37;;;6.30;99.90;;;;;;4207608;28;20266;-76
2024/01/01 08:50:53;;;;;;;9.03;3.50;;;6.40;99.90;;;;;;4192272;28;20209;-76
2024/01/01 08:52:55;;;;;;;11.13;3.93;;;6.40;99.90;;;;;;4218835;28;20204;-75
2024/01/01 08:54:59;;;;;;;10.43;3.37;;;6.40;99.90;;;;;;4214339;28;20257;-76
2024/01/01 08:57:01;;;;;;;8.70;3.30;;;6.50;99.90;;;;;;4213199;28;20228;-76
2024/01/01 08:59:02;;;;;;;6.40;2.90;;;6.50;99.90;;;;;;4211235;28;20847;-75
2024/01/01 09:01:04;;;;;;;9.33;3.23;;;6.50;99.90;;;;;;4209170;28;20259;-76
2024/01/01 09:03:06;;;;;;;7.57;2.87;;;6.60;99.90;;;;;;4215554;28;20566;-75
2024/01/01 09:05:08;;;;;;;13.50;3.93;;;6.70;99.90;;;;;;4212554;28;20261;-76
2024/01/01 09:07:10;;;;;;;9.03;2.80;;;6.70;99.90;;;;;;4213294;28;20282;-76
2024/01/01 09:09:12;;;;;;;6.93;3.13;;;6.80;99.90;;;;;;4214575;28;20277;-76
2024/01/01 09:11:16;;;;;;;6.97;3.00;;;6.80;99.90;;;;;;4211481;28;20209;-76
2024/01/01 09:13:17;;;;;;;12.20;3.77;;;6.90;99.90;;;;;;4216052;28;20638;-76
2024/01/01 09:15:19;;;;;;;8.53;2.93;;;6.90;99.90;;;;;;4212400;28;20204;-76
2024/01/01 09:17:21;;;;;;;11.40;3.40;;;6.90;99.90;;;;;;4213708;28;20227;-75
2024/01/01 09:19:23;;;;;;;8.97;3.30;;;6.80;99.90;;;;;;4211525;28;20214;-76
2024/01/01 09:21:26;;;;;;;8.90;3.40;;;6.70;99.90;;;;;;4212930;28;20206;-75
2024/01/01 09:23:28;;;;;;;10.50;3.73;;;6.70;99.90;;;;;;4214035;28;20606;-75
2024/01/01 09:25:29;;;;;;;8.00;3.40;;;6.60;99.90;;;;;;4213562;28;20216;-74
2024/01/01 09:27:32;;;;;;;5.63;3.37;;;6.60;99.90;;;;;;4212293;28;20811;-75
2024/01/01 09:29:33;;;;;;;10.63;3.90;;;6.50;99.90;;;;;;4211340;28;20247;-75
2024/01/01 09:31:36;;;;;;;8.60;3.40;;;6.50;99.90;;;;;;4215977;28;20197;-75
2024/01/01 09:33:39;;;;;;;7.43;2.77;;;6.50;99.90;;;;;;4214312;28;20289;-75
2024/01/01 09:35:42;;;;;;;10.27;3.17;;;6.50;99.90;;;;;;4211674;28;20233;-75
2024/01/01 09:37:44;;;;;;;11.43;3.40;;;6.50;99.90;;;;;;4211182;28;20213;-75
2024/01/01 09:39:46;;;;;;;11.80;3.50;;;6.50;99.90;;;;;;4213555;28;20785;-75
2024/01/01 09:41:49;;;;;;;9.80;3.10;;;6.50;99.90;;;;;;4212866;28;20668;-76
2024/01/01 09:43:53;;;;;;;7.43;3.37;;;6.50;99.90;;;;;;4212239;28;20282;-76
2024/01/01 09:45:57;;;;;;;11.20;3.07;;;6.60;99.90;;;;;;4212479;28;20205;-75
2024/01/01 09:47:58;;;;;;;6.93;3.00;;;6.60;99.90;;;;;;4212312;28;20255;-75
2024/01/01 09:50:00;;;;;;;8.33;3.07;;;6.60;99.90;;;;;;4212697;28;20222;-75
2024/01/01 09:52:05;;;;;;;7.73;2.53;;;6.70;99.90;;;;;;4211493;28;20278;-75
2024/01/01 09:54:08;;;;;;;8.97;2.80;;;6.70;99.90;;;;;;4211192;28;20279;-75
2024/01/01 09:56:10;;;;;;;7.83;3.07;;;6.70;99.90;;;;;;4215543;28;20209;-76
2024/01/01 09:58:11;;;;;;;11.07;3.23;;;6.70;99.90;;;;;;4214203;28;20221;-76
2024/01/01 10:00:24;;;;;;;5.50;2.73;;;6.80;99.90;;;;;;4211440;28;20262;-77
2024/01/01 10:02:28;;;;;;;8.27;2.90;;;6.80;99.90;;;;;;4218487;28;20567;-77
2024/01/01 10:04:29;;;;;;;10.07;3.30;;;6.80;99.90;;;;;;4212442;28;20221;-75
2024/01/01 10:06:33;;;;;;;5.70;2.83;;;6.80;99.90;;;;;;4212284;28;20615;-77
2024/01/01 10:08:35;;;;;;;6.17;2.60;;;6.90;99.90;;;;;;4210042;28;20206;-76
2024/01/01 10:10:38;;;;;;;5.50;2.53;;;6.90;99.90;;;;;;4212353;28;20209;-77
2024/01/01 10:12:45;;;;;;;6.40;3.00;;;6.90;99.90;;;;;;4214645;28;20241;-77
2024/01/01 10:14:48;;;;;;;8.07;2.40;;;7.00;99.90;;;;;;4214667;28;20680;-76
2024/01/01 10:16:51;;;;;;;8.10;3.07;;;7.00;99.90;;;;;;4197464;28;20234;-77
2024/01/01 10:18:55;;;;;;;8.37;2.90;;;7.10;99.90;;;;;;4214842;28;20232;-77
2024/01/01 10:21:10;;;;;;;8.83;2.87;;;7.10;99.90;;;;;;4214329;28;20198;-76
2024/01/01 10:23:28;;;;;;;6.80;2.70;;;7.10;99.90;;;;;;4210270;28;20225;-77
2024/01/01 10:25:29;;;;;;;8.60;2.80;;;7.10;99.90;;;;;;4212492;28;20257;-77
2024/01/01 10:27:31;;;;;;;7.90;2.50;;;7.10;99.90;;;;;;4211752;28;20284;-75
2024/01/01 10:29:34;;;;;;;7.43;2.43;;;7.10;99.90;;;;;;4213261;28;20208;-75
2024/01/01 10:31:36;;;;;;;9.73;3.00;;;7.20;99.90;;;;;;4213760;28;20206;-75
2024/01/01 10:33:41;;;;;;;7.93;2.80;;;7.20;99.90;;;;;;4212334;28;20229;-77
2024/01/01 10:35:43;;;;;;;6.97;2.80;;;7.20;99.90;;;;;;4215579;28;20213;-76
2024/01/01 10:37:47;;;;;;;9.37;2.90;;;7.20;99.90;;;;;;4210474;28;20562;-76
2024/01/01 10:39:51;;;;;;;6.80;2.33;;;7.30;99.90;;;;;;4215271;28;20268;-76